Time;durP1;ratioP1;P1;durP2;ratioP2;P2;SDS_P1;SDS_P2;PMS_P1;PMS_P2;Temp;Humidity;BMP_temperature;BMP_pressure;BME280_temperature;BME280_humidity;BME280_pressure;Samples;Min_cycle;Max_cycle;Signal;HPM_P1;HPM_P2
2021/03/16 00:02:01;;;;;;;;;;;3.90;99.90;;;0.67;95.78;95539.28;10324428;28;1768;-83
2021/03/16 00:07:04;;;;;;;;;;;1.70;99.90;;;0.72;95.37;95529.66;10315574;28;1907;-82
2021/03/16 00:12:06;;;;;;;;;;;1.70;99.90;;;0.74;95.49;95553.25;10322289;28;2324;-85
2021/03/16 00:17:10;;;;;;;;;;;3.50;99.90;;;0.78;95.66;95551.78;10323790;28;1951;-83
2021/03/16 00:22:13;;;;;;;;;;;1.80;99.90;;;0.82;95.21;95566.19;10313250;28;1901;-83
2021/03/16 00:27:15;;;;;;;;;;;3.80;99.90;;;0.91;95.43;95572.84;10303632;28;1982;-85
2021/03/16 00:32:18;;;;;;;;;;;1.90;99.90;;;0.90;94.93;95567.78;10330893;28;1558;-83
2021/03/16 00:37:21;;;;;;;;;;;1.90;99.90;;;0.91;95.10;95572.84;10325829;28;1785;-84
2021/03/16 00:42:23;;;;;;;;;;;1.90;99.90;;;0.97;94.64;95579.91;10308545;28;2318;-84
2021/03/16 00:47:25;;;;;;;;;;;3.40;99.90;;;0.97;94.56;95581.75;10319239;28;1985;-85
2021/03/16 00:52:27;;;;;;;;;;;2.00;99.90;;;0.99;95.01;95588.44;10330458;28;1497;-81
2021/03/16 00:57:30;;;;;;;;;;;2.00;99.90;;;1.03;94.45;95591.47;10328458;28;2010;-85
2021/03/16 01:02:33;;;;;;;;;;;4.20;99.90;;;1.05;94.46;95597.34;10316455;28;1693;-82
2021/03/16 01:07:36;;;;;;;;;;;2.10;99.90;;;1.12;94.43;95594.63;10315540;28;2114;-84
2021/03/16 01:12:39;;;;;;;;;;;2.40;99.90;;;1.12;94.01;95597.28;10307115;28;2188;-81
2021/03/16 01:17:45;;;;;;;;;;;2.20;99.90;;;1.16;94.49;95604.56;10307573;28;2107;-83
2021/03/16 01:22:49;;;;;;;;;;;3.80;99.90;;;1.19;93.64;95595.38;10347498;28;1950;-84
2021/03/16 01:27:57;;;;;;;;;;;3.40;99.90;;;1.15;93.87;95602.16;10314137;28;1908;-84
2021/03/16 01:32:59;;;;;;;;;;;3.30;99.90;;;1.16;93.76;95596.63;10325688;28;1305;-83
2021/03/16 01:38:03;;;;;;;;;;;2.30;99.90;;;1.18;93.43;95599.06;10323271;28;1119;-83
2021/03/16 01:43:06;;;;;;;;;;;3.30;99.90;;;1.19;93.68;95601.47;10296207;28;1841;-84
2021/03/16 01:48:09;;;;;;;;;;;3.80;99.90;;;1.21;93.59;95614.50;10297336;28;1915;-83
2021/03/16 01:53:22;;;;;;;;;;;3.20;99.90;;;1.22;93.32;95613.47;10353868;28;1688;-85
2021/03/16 01:58:27;;;;;;;;;;;2.30;99.90;;;1.20;92.98;95618.16;10360138;28;1882;-84
2021/03/16 02:03:33;;;;;;;;;;;4.50;99.90;;;1.14;93.00;95619.03;10333364;28;1582;-83
2021/03/16 02:08:37;;;;;;;;;;;3.50;99.90;;;1.17;93.19;95618.63;10357352;28;2006;-84
2021/03/16 02:13:41;;;;;;;;;;;2.20;99.90;;;1.15;92.98;95631.28;10332325;28;1855;-85
2021/03/16 02:18:48;;;;;;;;;;;2.00;99.90;;;1.19;92.68;95627.16;10359293;28;2219;-85
2021/03/16 02:23:52;;;;;;;;;;;2.90;99.90;;;1.20;92.38;95628.75;10351010;28;2092;-84
2021/03/16 02:28:55;;;;;;;;;;;3.90;99.90;;;1.20;92.01;95636.69;10317794;28;2092;-85
2021/03/16 02:33:58;;;;;;;;;;;2.60;99.90;;;1.19;92.26;95643.84;10324494;28;2142;-84
2021/03/16 02:39:02;;;;;;;;;;;2.30;99.90;;;1.21;92.19;95639.16;10316711;28;2183;-83
2021/03/16 02:44:05;;;;;;;;;;;2.90;99.90;;;1.22;91.99;95637.31;10313156;28;2139;-85
2021/03/16 02:49:11;;;;;;;;;;;3.90;99.90;;;1.28;91.83;95644.38;10302946;28;1835;-85
2021/03/16 02:54:14;;;;;;;;;;;3.90;99.90;;;1.26;91.82;95649.06;10331869;28;2076;-83
2021/03/16 02:59:17;;;;;;;;;;;3.90;99.90;;;1.24;91.46;95651.13;10298138;28;2466;-83
2021/03/16 03:04:20;;;;;;;;;;;2.30;99.90;;;1.29;91.26;95660.06;10326229;28;2139;-84
2021/03/16 03:09:22;;;;;;;;;;;4.30;99.90;;;1.25;90.98;95656.22;10310297;28;2131;-83
2021/03/16 03:14:24;;;;;;;;;;;3.90;99.90;;;1.26;91.00;95667.59;10317134;28;1910;-82
2021/03/16 03:19:27;;;;;;;;;;;4.20;99.90;;;1.28;90.82;95662.94;10300806;28;2208;-84
2021/03/16 03:24:29;;;;;;;;;;;3.40;99.90;;;1.29;91.03;95669.84;10331519;28;2204;-84
2021/03/16 03:29:33;;;;;;;;;;;4.60;99.90;;;1.28;90.65;95669.03;10304368;28;2085;-84
2021/03/16 03:34:36;;;;;;;;;;;3.90;99.90;;;1.27;90.77;95682.47;10331397;28;1998;-85
2021/03/16 03:39:38;;;;;;;;;;;3.80;99.90;;;0.98;91.08;95692.69;10337589;28;2087;-85
2021/03/16 03:44:40;;;;;;;;;;;3.50;99.90;;;0.84;92.18;95690.38;10356143;28;1891;-85
2021/03/16 03:49:43;;;;;;;;;;;1.90;99.90;;;0.92;92.59;95688.25;10323034;28;2047;-84
2021/03/16 03:54:45;;;;;;;;;;;2.70;99.90;;;1.03;92.76;95698.16;10323721;28;1915;-83
2021/03/16 03:59:47;;;;;;;;;;;2.00;99.90;;;1.04;92.42;95699.78;10300739;28;1699;-85
2021/03/16 04:04:52;;;;;;;;;;;2.00;99.90;;;1.04;92.51;95710.38;10301626;28;1972;-83
2021/03/16 04:09:55;;;;;;;;;;;2.90;99.90;;;1.06;92.74;95712.78;10306426;28;1942;-85
2021/03/16 04:14:57;;;;;;;;;;;2.80;99.90;;;1.00;93.01;95718.94;10339239;28;1776;-82
2021/03/16 04:19:59;;;;;;;;;;;4.10;99.90;;;0.96;92.77;95713.28;10360874;28;2138;-83
2021/03/16 04:25:01;;;;;;;;;;;2.00;99.90;;;0.94;92.43;95730.38;10343455;28;1891;-85
2021/03/16 04:30:03;;;;;;;;;;;3.60;99.90;;;0.98;92.36;95732.41;10340489;28;2257;-84
2021/03/16 04:35:05;;;;;;;;;;;3.00;99.90;;;0.96;91.96;95734.47;10331215;28;2057;-82
2021/03/16 04:40:07;;;;;;;;;;;1.90;99.90;;;1.00;91.83;95740.91;10313833;28;2243;-83
2021/03/16 04:45:09;;;;;;;;;;;3.00;99.90;;;1.05;91.78;95740.28;10324124;28;2147;-84
2021/03/16 04:50:11;;;;;;;;;;;3.90;99.90;;;1.06;91.78;95750.66;10290092;28;2506;-84
2021/03/16 04:55:13;;;;;;;;;;;4.10;99.90;;;1.02;91.47;95756.63;10330411;28;2076;-85
2021/03/16 05:00:15;;;;;;;;;;;2.00;99.90;;;1.02;91.33;95760.06;10308292;28;2253;-86
2021/03/16 05:05:17;;;;;;;;;;;2.10;99.90;;;0.99;91.25;95760.47;10317997;28;2460;-84
2021/03/16 05:10:19;;;;;;;;;;;4.40;99.90;;;0.97;91.16;95759.88;10327383;28;2031;-85
2021/03/16 05:15:21;;;;;;;;;;;4.40;99.90;;;0.95;91.66;95769.88;10337150;28;2039;-85
2021/03/16 05:20:23;;;;;;;;;;;2.00;99.90;;;1.01;91.31;95782.25;10309679;28;1734;-84
2021/03/16 05:25:25;;;;;;;;;;;2.00;99.90;;;0.97;91.42;95781.06;10327199;28;2095;-84
2021/03/16 05:30:27;;;;;;;;;;;2.00;99.90;;;1.00;90.89;95788.56;10334822;28;1765;-85
2021/03/16 05:35:29;;;;;;;;;;;2.00;99.90;;;1.00;90.56;95793.88;10358731;28;2079;-85
2021/03/16 05:40:32;;;;;;;;;;;2.10;99.90;;;1.03;90.63;95797.94;10329020;28;2166;-83
2021/03/16 05:45:34;;;;;;;;;;;2.00;99.90;;;1.04;90.59;95795.06;10314412;28;2137;-84
2021/03/16 05:50:36;;;;;;;;;;;2.10;99.90;;;1.08;90.39;95804.22;10330465;28;2113;-84
2021/03/16 05:55:38;;;;;;;;;;;3.30;99.90;;;1.07;90.83;95807.88;10305149;28;1576;-84
2021/03/16 06:00:40;;;;;;;;;;;3.10;99.90;;;1.10;90.59;95816.44;10349578;28;1511;-83
2021/03/16 06:05:42;;;;;;;;;;;2.10;99.90;;;1.17;90.57;95819.84;10339638;28;1966;-85
2021/03/16 06:10:44;;;;;;;;;;;2.70;99.90;;;1.21;89.91;95813.91;10333991;28;1833;-85
2021/03/16 06:15:46;;;;;;;;;;;3.20;99.90;;;1.24;89.90;95832.00;10330769;28;1782;-84
2021/03/16 06:20:48;;;;;;;;;;;2.30;99.90;;;1.18;89.87;95834.69;10316615;28;2285;-84
2021/03/16 06:25:52;;;;;;;;;;;2.20;99.90;;;1.15;90.04;95843.88;10305810;28;2031;-84
2021/03/16 06:30:54;;;;;;;;;;;2.20;99.90;;;1.23;90.28;95848.13;10299108;28;2038;-84
2021/03/16 06:35:57;;;;;;;;;;;2.20;99.90;;;1.28;90.08;95854.41;10314211;28;1459;-84
2021/03/16 06:41:01;;;;;;;;;;;2.20;99.90;;;1.29;89.78;95856.03;10320718;28;2164;-85
2021/03/16 06:46:04;;;;;;;;;;;2.20;99.90;;;1.49;89.67;95861.19;10327500;28;1887;-84
2021/03/16 06:51:05;;;;;;;;;;;2.40;99.90;;;1.43;89.91;95888.53;10292874;28;1730;-84
2021/03/16 06:56:08;;;;;;;;;;;2.50;99.90;;;1.23;90.45;95887.84;10318321;28;1974;-85
2021/03/16 07:01:10;;;;;;;;;;;3.40;99.90;;;1.16;91.62;95903.75;10303561;28;2136;-86
2021/03/16 07:06:14;;;;;;;;;;;2.20;99.90;;;1.12;91.85;95907.84;10326455;28;2093;-87
2021/03/16 07:11:16;;;;;;;;;;;2.20;99.90;;;1.18;91.87;95916.78;10318134;28;2216;-83
2021/03/16 07:16:17;;;;;;;;;;;2.10;99.90;;;1.33;90.74;95919.94;10305019;28;1939;-85
2021/03/16 07:21:19;;;;;;;;;;;2.30;99.90;;;1.57;90.41;95911.25;10305224;28;1987;-87
2021/03/16 07:26:21;;;;;;;;;;;2.50;99.90;;;1.76;89.83;95927.25;10346760;28;1985;-86
2021/03/16 07:31:24;;;;;;;;;;;2.70;99.90;;;1.83;89.85;95933.31;10347765;28;2001;-83
2021/03/16 07:36:27;;;;;;;;;;;2.80;99.90;;;1.55;89.57;95944.31;10328587;28;1951;-86
2021/03/16 07:41:29;;;;;;;;;;;2.70;99.90;;;1.51;90.38;95949.19;10323890;28;2066;-84
2021/03/16 07:46:31;;;;;;;;;;;3.00;99.90;;;1.57;90.49;95952.84;10281388;28;1975;-86
2021/03/16 07:51:33;;;;;;;;;;;2.50;99.90;;;1.64;89.30;95956.25;10288750;28;2004;-85
2021/03/16 07:56:36;;;;;;;;;;;5.00;99.90;;;1.70;88.58;95955.41;10323457;28;1938;-88
2021/03/16 08:01:37;;;;;;;;;;;2.60;99.90;;;1.74;86.84;95961.91;10288946;28;2091;-86
2021/03/16 08:06:40;;;;;;;;;;;2.80;99.90;;;1.91;87.51;95978.13;10316459;28;1903;-85
2021/03/16 08:11:41;;;;;;;;;;;2.80;99.90;;;2.25;86.69;95981.34;10332330;28;1966;-86
2021/03/16 08:16:45;;;;;;;;;;;3.00;99.90;;;2.28;85.62;95981.72;10327280;28;2099;-86
2021/03/16 08:21:47;;;;;;;;;;;5.10;99.90;;;2.21;84.49;95996.06;10314427;28;2014;-85
2021/03/16 08:26:49;;;;;;;;;;;3.20;99.90;;;2.43;84.70;95995.47;10325633;28;1999;-83
2021/03/16 08:31:51;;;;;;;;;;;3.30;99.90;;;2.60;83.48;96001.03;10357596;28;1749;-87
2021/03/16 08:36:53;;;;;;;;;;;5.20;99.90;;;2.46;82.12;96012.00;10325022;28;1928;-85
2021/03/16 08:41:55;;;;;;;;;;;4.70;99.90;;;2.50;81.22;96011.34;10308522;28;2011;-84
2021/03/16 08:46:57;;;;;;;;;;;3.40;99.90;;;2.78;81.49;96018.03;10315559;28;1958;-84
2021/03/16 08:51:59;;;;;;;;;;;3.60;99.90;;;2.77;81.10;96017.22;10339559;28;2443;-82
2021/03/16 08:57:01;;;;;;;;;;;3.70;99.90;;;2.80;80.84;96011.50;10306665;28;1998;-83
2021/03/16 09:02:03;;;;;;;;;;;5.50;99.90;;;3.11;79.97;96018.50;10323437;28;1907;-86
2021/03/16 09:07:05;;;;;;;;;;;3.90;99.90;;;3.46;79.01;96012.63;10292406;28;1902;-87
2021/03/16 09:12:07;;;;;;;;;;;4.20;99.90;;;3.43;78.85;96013.06;10304976;28;1952;-83
2021/03/16 09:17:09;;;;;;;;;;;5.00;99.90;;;3.71;77.11;96013.34;10292631;28;1982;-87
2021/03/16 09:22:11;;;;;;;;;;;4.70;99.90;;;3.35;75.92;96029.31;10314696;28;2163;-88
2021/03/16 09:27:13;;;;;;;;;;;4.50;99.90;;;3.25;76.68;96024.53;10305869;28;1940;-87
2021/03/16 09:32:14;;;;;;;;;;;4.20;99.90;;;3.39;77.31;96033.16;10309303;28;1802;-86
2021/03/16 09:37:18;;;;;;;;;;;5.20;99.90;;;3.60;76.81;96042.50;10337795;28;1621;-85
2021/03/16 09:42:20;;;;;;;;;;;6.10;99.90;;;3.81;77.11;96039.38;10342181;28;1770;-82
2021/03/16 09:47:21;;;;;;;;;;;5.90;99.90;;;3.70;76.68;96048.94;10331650;28;1920;-85
2021/03/16 09:52:23;;;;;;;;;;;6.90;99.90;;;3.91;74.88;96049.50;10355089;28;1951;-85
2021/03/16 09:57:25;;;;;;;;;;;6.40;99.90;;;4.01;74.91;96044.47;10336025;28;1314;-88
2021/03/16 10:02:27;;;;;;;;;;;6.80;99.90;;;3.12;76.10;96049.38;10336498;28;1915;-83
2021/03/16 10:07:29;;;;;;;;;;;4.50;99.90;;;2.82;78.89;96059.88;10316143;28;2124;-83
2021/03/16 10:12:31;;;;;;;;;;;4.60;99.90;;;2.46;80.90;96063.22;10307570;28;1628;-84
2021/03/16 10:17:33;;;;;;;;;;;3.60;99.90;;;2.38;81.83;96066.13;10313825;28;2513;-84
2021/03/16 10:22:35;;;;;;;;;;;3.40;99.90;;;2.87;80.53;96059.22;10301035;28;1828;-84
2021/03/16 10:27:37;;;;;;;;;;;3.60;99.90;;;2.92;77.21;96060.16;10309733;28;1910;-84
2021/03/16 10:33:04;;;;;;;;;;;5.60;99.90;;;3.60;74.07;96053.16;10290361;28;1784;-86
2021/03/16 10:38:38;;;;;;;;;;;4.30;99.90;;;3.87;72.49;96048.31;10292289;28;2103;-86
2021/03/16 10:43:41;;;;;;;;;;;4.60;99.90;;;3.99;69.88;96035.88;10305359;28;2161;-87
2021/03/16 10:48:43;;;;;;;;;;;5.30;99.90;;;4.26;66.70;96042.47;10348374;28;1962;-83
2021/03/16 10:53:45;;;;;;;;;;;5.00;99.90;;;4.18;69.45;96049.94;10329786;28;1890;-84
2021/03/16 10:58:48;;;;;;;;;;;5.20;99.90;;;4.42;67.36;96045.50;10319472;28;1942;-86
2021/03/16 11:03:50;;;;;;;;;;;5.20;99.90;;;4.42;67.79;96040.97;10317177;28;1526;-85
2021/03/16 11:08:53;;;;;;;;;;;6.50;99.90;;;4.25;68.93;96046.13;10300651;28;1903;-83
2021/03/16 11:13:55;;;;;;;;;;;5.10;99.90;;;4.42;66.59;96043.66;10323606;28;1947;-85
2021/03/16 11:18:57;;;;;;;;;;;6.30;99.90;;;4.41;63.94;96026.06;10308598;28;1865;-83
2021/03/16 11:23:59;;;;;;;;;;;6.60;99.90;;;4.47;63.97;96035.78;10328891;28;2023;-84
2021/03/16 11:29:01;;;;;;;;;;;5.30;99.90;;;4.58;62.41;96039.50;10317412;28;2009;-82
2021/03/16 11:34:03;;;;;;;;;;;5.50;99.90;;;5.09;61.38;96051.34;10316157;28;1787;-83
2021/03/16 11:39:05;;;;;;;;;;;5.80;99.90;;;5.08;59.74;96060.38;10336302;28;2094;-84
2021/03/16 11:44:08;;;;;;;;;;;7.40;99.90;;;5.31;59.04;96055.06;10301456;28;2354;-82
2021/03/16 11:49:10;;;;;;;;;;;6.10;99.90;;;5.81;56.56;96046.50;10318473;28;1985;-85
2021/03/16 11:54:12;;;;;;;;;;;6.50;99.90;;;5.42;55.54;96051.56;10330889;28;1803;-83
2021/03/16 11:59:14;;;;;;;;;;;6.50;97.90;;;5.49;56.09;96054.13;10323853;28;1864;-82
2021/03/16 12:04:16;;;;;;;;;;;7.20;97.70;;;5.38;56.73;96047.75;10326389;28;1548;-84
2021/03/16 12:09:19;;;;;;;;;;;6.90;97.00;;;5.24;55.55;96057.03;10313527;28;2076;-88
2021/03/16 12:14:21;;;;;;;;;;;6.30;94.70;;;5.30;57.05;96042.78;10300559;28;2298;-86
2021/03/16 12:19:24;;;;;;;;;;;6.20;95.70;;;5.38;58.28;96049.59;10302648;28;1762;-86
2021/03/16 12:24:26;;;;;;;;;;;6.30;97.10;;;5.42;58.40;96067.56;10311687;28;1805;-85
2021/03/16 12:29:28;;;;;;;;;;;6.40;97.10;;;5.10;59.56;96050.31;10325186;28;1894;-85
2021/03/16 12:34:31;;;;;;;;;;;6.20;97.30;;;5.01;58.26;96059.69;10295380;28;2131;-82
2021/03/16 12:39:33;;;;;;;;;;;5.50;95.80;;;5.07;58.01;96058.78;10310022;28;2210;-83
2021/03/16 12:44:35;;;;;;;;;;;6.30;96.00;;;5.24;59.02;96059.69;10321789;28;1880;-82
2021/03/16 12:49:37;;;;;;;;;;;6.10;97.20;;;4.60;63.04;96048.91;10304624;28;2157;-82
2021/03/16 12:54:39;;;;;;;;;;;5.70;98.90;;;4.69;60.97;96052.03;10282862;28;1553;-83
2021/03/16 12:59:40;;;;;;;;;;;5.70;98.90;;;4.59;60.38;96067.75;10334854;28;1798;-83
2021/03/16 13:04:42;;;;;;;;;;;5.60;98.00;;;4.59;62.37;96073.91;10340888;28;1908;-83
2021/03/16 13:09:45;;;;;;;;;;;6.40;99.90;;;4.33;62.38;96061.00;10357646;28;2003;-83
2021/03/16 13:14:48;;;;;;;;;;;7.00;99.90;;;4.69;62.21;96057.34;10350246;28;1953;-82
2021/03/16 13:19:50;;;;;;;;;;;6.50;99.90;;;4.63;60.91;96047.63;10316365;28;2404;-81
2021/03/16 13:24:52;;;;;;;;;;;5.60;98.40;;;4.75;59.47;96053.78;10326942;28;1962;-83
2021/03/16 13:29:54;;;;;;;;;;;5.70;97.00;;;5.00;60.01;96063.41;10315053;28;1443;-83
2021/03/16 13:34:56;;;;;;;;;;;7.10;98.10;;;4.75;58.90;96069.75;10334968;28;1284;-82
2021/03/16 13:39:58;;;;;;;;;;;6.40;96.30;;;4.81;57.39;96079.47;10329082;28;1933;-84
2021/03/16 13:45:00;;;;;;;;;;;6.70;94.50;;;4.67;58.23;96075.41;10350143;28;2145;-82
2021/03/16 13:50:01;;;;;;;;;;;5.70;93.60;;;4.79;57.70;96065.59;10296554;28;2105;-83
2021/03/16 13:55:03;;;;;;;;;;;5.70;94.20;;;4.87;58.59;96073.25;10319770;28;1833;-83
2021/03/16 14:00:05;;;;;;;;;;;5.70;94.40;;;4.92;58.44;96063.75;10344711;28;2016;-82
2021/03/16 14:05:07;;;;;;;;;;;5.90;94.10;;;4.60;58.40;96074.72;10337207;28;1946;-84
2021/03/16 14:10:10;;;;;;;;;;;5.80;93.70;;;4.28;59.54;96071.50;10297743;28;1873;-85
2021/03/16 14:15:12;;;;;;;;;;;5.50;94.30;;;4.54;59.56;96078.28;10318489;28;2410;-85
2021/03/16 14:20:14;;;;;;;;;;;5.40;95.30;;;4.91;58.52;96065.63;10316769;28;1900;-85
2021/03/16 14:25:16;;;;;;;;;;;5.70;95.10;;;4.97;57.92;96069.22;10299119;28;1989;-85
2021/03/16 14:30:18;;;;;;;;;;;5.90;93.80;;;5.00;57.03;96074.06;10317802;28;1547;-84
2021/03/16 14:35:20;;;;;;;;;;;6.10;92.80;;;4.72;57.78;96077.41;10310129;28;1610;-86
2021/03/16 14:40:22;;;;;;;;;;;7.50;93.60;;;4.78;57.89;96071.16;10330578;28;1868;-84
2021/03/16 14:45:25;;;;;;;;;;;5.80;93.00;;;5.01;58.66;96065.03;10306494;28;1914;-84
2021/03/16 14:50:27;;;;;;;;;;;5.80;94.40;;;4.82;57.53;96057.13;10327634;28;1973;-82
2021/03/16 14:55:34;;;;;;;;;;;5.90;92.50;;;5.00;58.09;96063.41;10308850;28;1741;-88
2021/03/16 15:00:48;;;;;;;;;;;6.50;93.00;;;5.06;58.26;96059.81;10319492;28;1912;-89
2021/03/16 15:05:58;;;;;;;;;;;5.80;93.20;;;4.66;57.93;96067.66;10335070;28;1891;-88
2021/03/16 15:11:03;;;;;;;;;;;7.30;92.70;;;4.22;59.74;96059.09;10334452;28;1289;-90
2021/03/16 15:16:10;;;;;;;;;;;6.50;93.60;;;3.81;65.27;96087.22;10329122;28;1634;-87
2021/03/16 15:21:28;;;;;;;;;;;6.30;98.00;;;3.07;71.89;96089.06;10301864;28;1500;-89
2021/03/16 15:26:37;;;;;;;;;;;4.50;99.90;;;2.72;75.04;96075.47;10337576;28;2012;-88
2021/03/16 15:31:41;;;;;;;;;;;4.60;99.90;;;3.05;72.88;96066.38;10332796;28;1371;-85
2021/03/16 15:36:44;;;;;;;;;;;3.90;99.90;;;3.21;72.51;96058.69;10327934;28;1544;-85
2021/03/16 15:41:46;;;;;;;;;;;4.10;99.90;;;3.61;69.81;96066.22;10326620;28;1293;-84
2021/03/16 15:46:48;;;;;;;;;;;4.70;99.90;;;3.69;69.13;96057.13;10317197;28;1938;-85
2021/03/16 15:51:50;;;;;;;;;;;4.60;99.90;;;3.74;68.60;96055.41;10336286;28;1513;-86
2021/03/16 15:56:52;;;;;;;;;;;4.70;99.90;;;3.80;68.70;96057.19;10341634;28;1580;-87
2021/03/16 16:01:55;;;;;;;;;;;6.20;99.90;;;3.78;67.73;96047.81;10305267;28;2056;-85
2021/03/16 16:06:58;;;;;;;;;;;4.80;99.90;;;3.86;68.79;96042.19;10322828;28;2052;-83
2021/03/16 16:12:01;;;;;;;;;;;4.70;99.90;;;3.75;68.60;96050.91;10329891;28;1730;-87
2021/03/16 16:17:04;;;;;;;;;;;6.30;99.90;;;3.56;68.33;96050.09;10314426;28;1762;-84
2021/03/16 16:22:07;;;;;;;;;;;4.60;99.90;;;3.51;69.35;96057.97;10345204;28;1804;-84
2021/03/16 16:27:13;;;;;;;;;;;4.60;99.90;;;3.47;70.54;96051.44;10342936;28;1975;-84
2021/03/16 16:32:16;;;;;;;;;;;4.60;99.90;;;3.48;71.39;96061.03;10320249;28;1805;-83
2021/03/16 16:37:19;;;;;;;;;;;4.50;99.90;;;3.44;72.21;96065.19;10346563;28;1611;-84
2021/03/16 16:42:22;;;;;;;;;;;4.50;99.90;;;3.40;72.29;96058.69;10340953;28;1928;-84
2021/03/16 16:47:26;;;;;;;;;;;4.60;99.90;;;3.30;71.35;96066.34;10316168;28;1883;-83
2021/03/16 16:52:29;;;;;;;;;;;4.40;99.90;;;3.29;70.77;96076.16;10327077;28;1513;-82
2021/03/16 16:57:31;;;;;;;;;;;4.40;99.90;;;3.15;68.31;96067.53;10331777;28;1931;-87
2021/03/16 17:02:33;;;;;;;;;;;4.30;99.90;;;3.01;68.63;96068.69;10307048;28;1693;-85
2021/03/16 17:07:35;;;;;;;;;;;4.20;99.90;;;2.86;68.42;96063.72;10305862;28;1981;-84
2021/03/16 17:12:37;;;;;;;;;;;4.00;99.90;;;2.84;67.82;96067.59;10293913;28;1721;-87
2021/03/16 17:17:49;;;;;;;;;;;4.00;99.90;;;2.82;68.16;96067.03;10317041;28;1936;-86
2021/03/16 17:22:52;;;;;;;;;;;4.00;99.90;;;2.77;69.12;96077.47;10300526;28;2070;-88
2021/03/16 17:28:12;;;;;;;;;;;3.90;99.90;;;2.71;70.72;96082.63;10312936;28;1895;-88
2021/03/16 17:50:13;;;;;;;;;;;4.70;99.90;;;2.51;76.56;96103.19;10300481;28;1994;-86
2021/03/16 17:55:15;;;;;;;;;;;3.60;99.90;;;2.42;77.39;96104.50;10264539;28;1895;-86
2021/03/16 18:00:28;;;;;;;;;;;3.60;99.90;;;2.40;78.87;96096.72;10249233;28;2063;-86
2021/03/16 18:05:57;;;;;;;;;;;;;;;;;;;;;
2021/03/16 18:11:23;;;;;;;;;;;3.40;99.90;;;2.03;80.21;96105.50;10265908;28;2141;-86
2021/03/16 18:27:52;;;;;;;;;;;3.70;99.90;;;1.99;82.17;96117.56;10246406;28;1887;-88
2021/03/16 18:38:42;;;;;;;;;;;3.00;99.90;;;1.90;82.69;96112.50;10258996;29;1990;-83
2021/03/16 18:43:44;;;;;;;;;;;3.10;99.90;;;1.81;82.63;96108.47;10242674;29;2095;-87
2021/03/16 18:48:46;;;;;;;;;;;3.60;99.90;;;1.61;82.52;96118.34;10213967;29;2309;-85
2021/03/16 18:53:48;;;;;;;;;;;2.90;99.90;;;1.46;83.20;96118.56;10246483;29;1958;-84
2021/03/16 18:58:49;;;;;;;;;;;4.30;99.90;;;1.48;83.25;96121.03;10248530;29;1574;-85
2021/03/16 19:03:51;;;;;;;;;;;2.70;99.90;;;1.47;84.05;96120.22;10269879;28;1287;-85
2021/03/16 19:08:53;;;;;;;;;;;2.70;99.90;;;1.65;83.84;96118.72;10249280;29;1969;-82
2021/03/16 19:13:56;;;;;;;;;;;2.80;99.90;;;1.76;83.06;96120.72;10252440;29;2043;-84
2021/03/16 19:18:58;;;;;;;;;;;2.90;99.90;;;1.85;82.58;96128.25;10235062;29;1662;-85
2021/03/16 19:24:00;;;;;;;;;;;2.90;99.90;;;1.88;81.75;96113.75;10246472;29;1760;-84
2021/03/16 19:29:02;;;;;;;;;;;3.50;99.90;;;1.83;82.02;96095.81;10210587;29;1910;-84
2021/03/16 19:34:04;;;;;;;;;;;3.00;99.90;;;1.78;81.57;96100.09;10215349;29;1246;-84
2021/03/16 19:39:06;;;;;;;;;;;2.90;99.90;;;1.79;82.06;96099.13;10250455;29;1211;-84
2021/03/16 19:44:08;;;;;;;;;;;2.90;99.90;;;1.82;81.80;96106.63;10242938;29;1566;-85
2021/03/16 19:49:10;;;;;;;;;;;2.90;99.90;;;1.87;81.67;96112.13;10242859;29;1954;-83
2021/03/16 19:54:13;;;;;;;;;;;1.50;99.90;;;1.89;82.30;96110.88;10273623;29;1675;-84
2021/03/16 19:59:19;;;;;;;;;;;4.40;99.90;;;1.97;82.76;96119.59;10250877;29;1611;-85
2021/03/16 20:04:21;;;;;;;;;;;3.00;99.90;;;1.90;83.44;96122.28;10240617;29;1377;-83
2021/03/16 20:09:24;;;;;;;;;;;4.20;99.90;;;1.72;84.27;96115.03;10242904;29;1962;-83
2021/03/16 20:14:26;;;;;;;;;;;2.90;99.90;;;1.61;85.81;96118.34;10243597;29;2050;-84
2021/03/16 20:19:28;;;;;;;;;;;3.60;99.90;;;1.56;86.39;96121.59;10248435;29;2054;-85
2021/03/16 20:24:30;;;;;;;;;;;2.70;99.90;;;1.42;87.18;96127.97;10219946;29;1998;-85
2021/03/16 20:29:32;;;;;;;;;;;3.70;99.90;;;1.40;87.56;96129.16;10243781;29;2086;-86
2021/03/16 20:34:35;;;;;;;;;;;2.60;99.90;;;1.27;88.11;96127.38;10226193;29;2054;-83
2021/03/16 20:39:37;;;;;;;;;;;2.40;99.90;;;1.10;89.00;96116.41;10225045;29;2094;-85
2021/03/16 20:44:39;;;;;;;;;;;2.20;99.90;;;1.06;89.92;96116.00;10223601;29;2134;-85
2021/03/16 20:49:41;;;;;;;;;;;2.80;99.90;;;1.14;90.94;96111.50;10230986;29;2196;-84
2021/03/16 20:54:42;;;;;;;;;;;3.40;99.90;;;1.16;90.71;96112.13;10235127;29;2122;-85
2021/03/16 20:59:44;;;;;;;;;;;2.30;99.90;;;1.17;90.35;96111.09;10232149;29;2184;-86
2021/03/16 21:04:46;;;;;;;;;;;2.20;99.90;;;1.20;90.48;96113.31;10227422;29;2297;-85
2021/03/16 21:09:49;;;;;;;;;;;2.30;99.90;;;1.11;90.35;96106.63;10227907;29;2026;-85
2021/03/16 21:14:51;;;;;;;;;;;2.20;99.90;;;1.05;91.07;96116.19;10257315;29;2047;-81
2021/03/16 21:19:54;;;;;;;;;;;2.20;99.90;;;0.59;91.97;96118.88;10255726;29;2089;-84
2021/03/16 21:24:56;;;;;;;;;;;4.10;99.90;;;0.25;93.15;96123.28;10267562;29;1848;-84
2021/03/16 21:29:57;;;;;;;;;;;1.60;99.90;;;0.03;94.01;96119.16;10256328;29;1911;-84
2021/03/16 21:34:59;;;;;;;;;;;1.20;99.90;;;-0.10;94.67;96123.38;10248322;29;1886;-83
2021/03/16 21:40:01;;;;;;;;;;;1.10;99.90;;;-0.08;95.14;96118.72;10230532;29;2078;-81
2021/03/16 21:45:03;;;;;;;;;;;1.00;99.90;;;-0.07;95.48;96101.84;10249425;29;1982;-80
2021/03/16 21:50:05;;;;;;;;;;;1.10;99.90;;;-0.04;95.84;96098.00;10247628;29;1899;-81
2021/03/16 21:55:07;;;;;;;;;;;1.00;99.90;;;-0.11;95.63;96097.97;10266242;29;2146;-81
2021/03/16 22:00:08;;;;;;;;;;;1.50;99.90;;;-0.08;95.46;96092.28;10223910;29;2009;-82
2021/03/16 22:05:10;;;;;;;;;;;2.60;99.90;;;-0.04;96.12;96085.59;10235507;29;2010;-82
2021/03/16 22:10:12;;;;;;;;;;;1.10;99.90;;;-0.04;95.65;96079.50;10212055;29;2066;-82
2021/03/16 22:15:14;;;;;;;;;;;1.00;99.90;;;-0.08;95.59;96076.44;10212940;29;1999;-82
2021/03/16 22:20:16;;;;;;;;;;;1.10;99.90;;;-0.01;95.91;96087.81;10240655;29;1633;-84
2021/03/16 22:25:18;;;;;;;;;;;2.40;99.90;;;0.03;95.81;96077.69;10231573;29;1841;-83
2021/03/16 22:30:20;;;;;;;;;;;1.10;99.90;;;0.13;95.40;96070.19;10239586;29;2153;-81
2021/03/16 22:35:21;;;;;;;;;;;1.20;99.90;;;0.23;95.27;96067.13;10234726;29;1732;-82
2021/03/16 22:40:23;;;;;;;;;;;1.20;99.90;;;0.24;95.13;96055.53;10225366;29;1628;-83
2021/03/16 22:45:26;;;;;;;;;;;1.30;99.90;;;0.34;94.99;96061.25;10247844;29;2081;-84
2021/03/16 22:50:28;;;;;;;;;;;1.30;99.90;;;0.33;95.06;96051.72;10231828;29;2011;-84
2021/03/16 22:55:47;;;;;;;;;;;1.40;99.90;;;0.38;94.80;96044.00;10229969;29;1554;-84
2021/03/16 23:00:49;;;;;;;;;;;2.60;99.90;;;0.41;94.59;96035.63;10245931;29;2102;-84
2021/03/16 23:05:51;;;;;;;;;;;1.50;99.90;;;0.46;94.22;96035.03;10231003;29;1929;-84
2021/03/16 23:10:52;;;;;;;;;;;1.50;99.90;;;0.51;93.86;96030.75;10260346;29;1829;-85
2021/03/16 23:15:54;;;;;;;;;;;1.60;99.90;;;0.57;93.70;96023.00;10235638;29;2081;-84
2021/03/16 23:20:57;;;;;;;;;;;1.60;99.90;;;0.61;93.25;96026.88;10218302;29;2027;-84
2021/03/16 23:25:59;;;;;;;;;;;1.70;99.90;;;0.65;93.29;96022.81;10256875;29;1899;-85
2021/03/16 23:31:06;;;;;;;;;;;1.70;99.90;;;0.60;93.13;96015.47;10238334;29;2168;-84
2021/03/16 23:36:08;;;;;;;;;;;1.70;99.90;;;0.67;93.09;96013.63;10253116;29;1856;-85
2021/03/16 23:41:10;;;;;;;;;;;1.70;99.90;;;0.65;93.17;96036.03;10248684;29;2118;-85
2021/03/16 23:46:13;;;;;;;;;;;2.20;99.90;;;0.23;91.54;96040.72;10229433;29;1990;-85
2021/03/16 23:51:16;;;;;;;;;;;1.60;99.90;;;0.01;91.85;96041.91;10252918;29;2090;-85
2021/03/16 23:56:17;;;;;;;;;;;1.30;99.90;;;-0.10;92.36;96030.91;10263312;29;1771;-84
